Time;durP1;ratioP1;P1;durP2;ratioP2;P2;SDS_P1;SDS_P2;PMS_P1;PMS_P2;Temp;Humidity;BMP_temperature;BMP_pressure;BME280_temperature;BME280_humidity;BME280_pressure;Samples;Min_cycle;Max_cycle;Signal;HPM_P1;HPM_P2
2022/07/08 11:47:28;;;;;;;9.93;5.65;;;;;;;20.12;77.57;99621.59;1827472;77;22856;-46
2022/07/08 11:49:56;;;;;;;8.80;5.70;;;;;;;20.07;76.73;99618.48;1751027;81;21018;-51
2022/07/08 11:52:21;;;;;;;7.80;5.80;;;;;;;20.05;76.84;99614.28;1722854;83;21035;-42
2022/07/08 11:54:48;;;;;;;8.00;6.03;;;;;;;20.06;76.85;99607.44;1765437;81;21065;-38
2022/07/08 11:57:16;;;;;;;9.78;5.85;;;;;;;20.10;76.25;99612.02;1759593;81;21014;-47
2022/07/08 11:59:46;;;;;;;9.48;6.72;;;;;;;20.10;77.10;99614.22;1759034;81;20951;-41
2022/07/08 12:02:15;;;;;;;11.00;6.97;;;;;;;20.18;77.83;99608.67;1728888;81;21455;-45
2022/07/08 12:04:46;;;;;;;10.85;7.00;;;;;;;20.30;78.54;99601.73;1757032;80;21033;-47
2022/07/08 12:07:28;;;;;;;8.68;6.58;;;;;;;20.83;79.26;99598.27;1755431;81;21073;-41
2022/07/08 12:10:03;;;;;;;10.00;6.97;;;;;;;21.21;79.20;99593.81;1755281;81;21000;-48
2022/07/08 12:12:31;;;;;;;8.60;6.20;;;;;;;21.29;75.68;99604.64;1762733;81;21004;-50
2022/07/08 12:15:12;;;;;;;13.40;6.83;;;;;;;21.24;75.58;99598.38;1770097;81;21455;-48
2022/07/08 12:17:38;;;;;;;11.25;6.78;;;;;;;21.27;75.16;99604.78;1770089;80;21009;-44
2022/07/08 12:20:05;;;;;;;11.15;7.03;;;;;;;21.25;75.56;99605.93;1769825;81;21033;-45
2022/07/08 12:22:48;;;;;;;13.15;7.08;;;;;;;21.32;75.15;99599.01;1754780;80;21021;-49
2022/07/08 12:25:17;;;;;;;9.20;6.15;;;;;;;21.38;74.88;99598.41;1739322;82;21081;-40
2022/07/08 12:27:44;;;;;;;5.95;5.17;;;;;;;21.53;74.70;99601.47;1738127;81;21029;-42
2022/07/08 12:30:15;;;;;;;;;;;;;;;21.75;73.03;99604.75;1756447;81;21042;-55
2022/07/08 12:32:43;;;;;;;8.35;5.42;;;;;;;21.87;70.96;99607.58;1762553;81;20446;-41
2022/07/08 12:35:11;;;;;;;16.65;5.85;;;;;;;21.95;69.37;99614.34;1765233;81;21069;-42
2022/07/08 12:37:38;;;;;;;15.60;6.25;;;;;;;21.94;68.55;99615.83;1769446;81;20952;-51
2022/07/08 12:40:15;;;;;;;;;;;;;;;21.96;68.15;99617.89;1772254;81;21018;-42
2022/07/08 12:42:42;;;;;;;10.68;5.50;;;;;;;21.79;65.96;99616.36;1762942;80;20422;-49
2022/07/08 12:45:14;;;;;;;8.00;5.50;;;;;;;21.71;67.58;99610.06;1756667;80;21632;-42
2022/07/08 12:47:40;;;;;;;8.88;5.25;;;;;;;21.59;66.56;99611.60;1760389;81;21094;-48
2022/07/08 12:50:07;;;;;;;9.78;5.03;;;;;;;21.45;66.95;99614.25;1743944;81;21075;-46
2022/07/08 12:52:33;;;;;;;9.23;4.90;;;;;;;21.49;67.61;99613.97;1741982;82;20947;-40
2022/07/08 12:54:59;;;;;;;6.67;5.33;;;;;;;21.55;67.93;99612.03;1761579;81;21512;-48
2022/07/08 12:57:25;;;;;;;8.25;4.90;;;;;;;21.60;67.11;99603.07;1731316;83;21042;-40
2022/07/08 12:59:50;;;;;;;9.93;4.90;;;;;;;21.74;67.05;99608.41;1761675;81;21021;-49
2022/07/08 13:02:16;;;;;;;6.33;4.53;;;;;;;21.84;65.55;99597.99;1757263;81;20991;-39
2022/07/08 13:04:42;;;;;;;10.50;4.30;;;;;;;21.99;64.31;99599.69;1746879;81;21006;-50
2022/07/08 13:07:11;;;;;;;9.48;3.85;;;;;;;22.05;64.41;99588.87;1746346;82;20991;-54
2022/07/08 13:09:38;;;;;;;5.28;4.37;;;;;;;21.98;63.72;99586.45;1725901;83;21726;-43
2022/07/08 13:12:04;;;;;;;6.17;4.08;;;;;;;21.90;62.89;99589.02;1761452;81;21038;-44
2022/07/08 13:14:30;;;;;;;10.85;4.92;;;;;;;21.89;64.17;99584.17;1745708;81;21567;-48
2022/07/08 13:16:59;;;;;;;9.10;3.90;;;;;;;21.74;63.18;99590.53;1785351;80;21011;-45
2022/07/08 13:19:25;;;;;;;7.50;4.33;;;;;;;21.74;62.42;99595.02;1784960;80;21605;-47
2022/07/08 13:21:50;;;;;;;4.72;3.42;;;;;;;21.64;62.04;99591.91;1766949;80;21050;-47
2022/07/08 13:24:16;;;;;;;5.15;4.12;;;;;;;21.60;62.69;99583.00;1763375;81;21018;-46
2022/07/08 13:26:42;;;;;;;7.08;3.67;;;;;;;21.60;62.56;99587.02;1763471;81;20958;-46
2022/07/08 13:29:08;;;;;;;9.60;3.87;;;;;;;21.49;62.77;99587.22;1763264;80;21486;-38
2022/07/08 13:31:34;;;;;;;4.42;3.60;;;;;;;21.39;62.06;99580.05;1763317;81;21558;-50
2022/07/08 13:34:00;;;;;;;4.47;3.87;;;;;;;21.43;61.47;99577.92;1763598;81;21542;-41
2022/07/08 13:36:27;;;;;;;5.85;3.80;;;;;;;21.34;61.27;99568.94;1763401;81;20994;-51
2022/07/08 13:38:52;;;;;;;8.65;4.65;;;;;;;21.27;60.80;99566.50;1763644;81;20974;-45
2022/07/08 13:41:19;;;;;;;8.03;3.95;;;;;;;21.22;61.88;99557.56;1763377;81;20966;-44
2022/07/08 13:43:45;;;;;;;6.03;4.05;;;;;;;21.19;62.15;99565.04;1763339;81;20970;-44
2022/07/08 13:46:11;;;;;;;7.73;4.20;;;;;;;21.21;62.26;99563.06;1699903;82;21019;-46
2022/07/08 13:48:38;;;;;;;7.30;4.15;;;;;;;21.23;62.36;99567.80;1746740;82;20979;-38
2022/07/08 13:51:04;;;;;;;8.63;4.33;;;;;;;21.31;62.81;99578.59;1770728;81;20994;-43
2022/07/08 13:53:30;;;;;;;5.90;4.13;;;;;;;21.35;62.27;99569.27;1770571;81;21006;-42
2022/07/08 13:55:56;;;;;;;8.53;3.67;;;;;;;21.48;62.55;99567.63;1754731;82;20987;-42
2022/07/08 13:58:22;;;;;;;10.00;4.27;;;;;;;21.57;62.39;99576.59;1755199;82;21512;-52
2022/07/08 14:00:48;;;;;;;9.58;4.00;;;;;;;21.61;62.36;99567.27;1770675;81;20974;-42
2022/07/08 14:03:14;;;;;;;7.70;4.00;;;;;;;21.49;60.18;99565.81;1754464;82;21082;-45
2022/07/08 14:05:40;;;;;;;7.10;3.70;;;;;;;21.44;60.74;99571.56;1754877;82;21090;-52
2022/07/08 14:08:06;;;;;;;5.53;2.98;;;;;;;21.36;59.99;99568.80;1755132;81;20984;-47
2022/07/08 14:10:32;;;;;;;4.87;2.87;;;;;;;21.27;59.04;99575.86;1755173;81;20988;-42
2022/07/08 14:12:58;;;;;;;6.10;2.45;;;;;;;21.19;58.10;99575.73;1755381;81;21007;-50
2022/07/08 14:15:23;;;;;;;5.20;2.92;;;;;;;21.12;56.67;99566.14;1755177;82;20960;-50
2022/07/08 14:17:49;;;;;;;7.90;2.30;;;;;;;21.16;57.06;99561.34;1754996;81;21012;-43
2022/07/08 14:20:15;;;;;;;2.60;2.25;;;;;;;21.36;56.24;99560.27;1733568;81;21616;-49
2022/07/08 14:22:42;;;;;;;6.85;2.83;;;;;;;21.59;54.63;99574.14;1725984;83;21530;-46
2022/07/08 14:25:08;;;;;;;3.87;2.30;;;;;;;21.78;54.61;99567.82;1733587;82;20981;-47
2022/07/08 14:27:34;;;;;;;2.58;2.22;;;;;;;21.98;54.14;99569.88;1740553;82;21013;-46
2022/07/08 14:30:00;;;;;;;8.28;2.55;;;;;;;22.02;54.45;99563.22;1740357;82;21538;-47
2022/07/08 14:32:26;;;;;;;3.70;2.55;;;;;;;21.93;54.57;99565.97;1740071;82;20990;-48
2022/07/08 14:34:52;;;;;;;5.85;2.90;;;;;;;21.80;54.16;99566.34;1740275;82;21682;-42
2022/07/08 14:37:19;;;;;;;5.90;2.27;;;;;;;21.71;54.96;99576.61;1740340;82;21001;-40
2022/07/08 14:39:45;;;;;;;3.47;2.60;;;;;;;21.61;54.26;99573.49;1740179;82;20978;-51
2022/07/08 14:42:12;;;;;;;4.58;2.60;;;;;;;21.46;54.59;99575.79;1731050;82;20990;-42
2022/07/08 14:44:38;;;;;;;4.37;2.40;;;;;;;21.38;54.69;99573.00;1702268;83;21504;-39
2022/07/08 14:47:05;;;;;;;6.00;2.37;;;;;;;21.27;55.04;99572.69;1716678;82;21038;-50
2022/07/08 14:49:31;;;;;;;6.83;2.92;;;;;;;21.33;55.37;99581.95;1742597;81;21007;-43
2022/07/08 14:51:58;;;;;;;10.45;2.05;;;;;;;21.35;55.50;99569.77;1760762;80;21512;-52
2022/07/08 14:54:23;;;;;;;2.47;2.25;;;;;;;21.34;55.41;99568.08;1735180;82;21480;-35
2022/07/08 14:56:49;;;;;;;3.90;1.85;;;;;;;21.47;54.18;99574.81;1759960;81;21143;-52
2022/07/08 14:59:15;;;;;;;4.58;1.90;;;;;;;21.52;52.56;99567.70;1740553;81;20982;-49
2022/07/08 15:01:41;;;;;;;4.72;2.02;;;;;;;21.80;53.54;99577.05;1724467;83;20979;-52
2022/07/08 15:04:07;;;;;;;2.47;1.55;;;;;;;21.97;53.16;99574.04;1755053;80;20955;-45
2022/07/08 15:06:33;;;;;;;3.65;1.87;;;;;;;22.05;52.90;99568.78;1718708;83;20986;-36
2022/07/08 15:08:58;;;;;;;3.87;1.95;;;;;;;22.00;52.58;99572.41;1744878;81;21109;-46
2022/07/08 15:11:24;;;;;;;7.42;2.50;;;;;;;21.95;52.33;99567.49;1727835;81;21042;-41
2022/07/08 15:13:50;;;;;;;3.58;2.02;;;;;;;21.81;52.74;99572.88;1702344;84;21069;-45
2022/07/08 15:16:16;;;;;;;5.03;1.30;;;;;;;21.97;52.96;99578.89;1721902;83;21007;-46
2022/07/08 15:18:42;;;;;;;6.15;1.20;;;;;;;22.01;51.29;99588.80;1761467;81;21139;-36
2022/07/08 15:21:08;;;;;;;2.58;1.15;;;;;;;22.01;51.14;99583.45;1756138;81;21389;-44
2022/07/08 15:23:33;;;;;;;4.92;1.35;;;;;;;21.98;50.93;99585.11;1722110;82;21042;-43
2022/07/08 15:25:59;;;;;;;3.52;1.12;;;;;;;21.96;50.69;99587.09;1716336;83;21483;-41
2022/07/08 15:28:25;;;;;;;3.05;1.30;;;;;;;21.94;51.04;99586.38;1760468;81;21453;-40
2022/07/08 15:30:51;;;;;;;3.47;1.50;;;;;;;21.93;51.05;99577.52;1758054;81;21472;-43
2022/07/08 15:33:17;;;;;;;4.00;1.77;;;;;;;21.93;51.44;99582.03;1731416;82;21708;-48
2022/07/08 15:35:42;;;;;;;6.37;1.72;;;;;;;21.87;51.68;99596.87;1731922;83;20996;-45
2022/07/08 15:38:08;;;;;;;3.65;1.50;;;;;;;21.77;51.82;99593.39;1730423;81;21066;-47
2022/07/08 15:40:34;;;;;;;11.80;1.72;;;;;;;21.75;52.34;99592.70;1731524;82;20999;-43
2022/07/08 15:43:00;;;;;;;4.95;1.50;;;;;;;21.72;51.76;99598.34;1731207;83;21030;-50
2022/07/08 15:45:28;;;;;;;3.37;1.47;;;;;;;21.71;51.68;99610.06;1731105;83;21003;-54
2022/07/08 15:47:54;;;;;;;1.85;1.37;;;;;;;21.69;52.02;99611.55;1727509;83;21058;-41
2022/07/08 15:50:21;;;;;;;2.92;1.50;;;;;;;21.58;52.34;99606.39;1729977;82;20994;-44
2022/07/08 15:52:47;;;;;;;3.65;1.17;;;;;;;21.55;52.29;99606.68;1714372;83;21013;-45
2022/07/08 15:55:14;;;;;;;1.87;1.20;;;;;;;21.55;52.96;99614.70;1702988;83;21722;-46
2022/07/08 15:57:40;;;;;;;2.47;1.52;;;;;;;21.46;52.89;99617.27;1717299;83;20993;-50
2022/07/08 16:00:09;;;;;;;13.15;1.60;;;;;;;21.49;53.29;99616.64;1716989;82;20993;-40
2022/07/08 16:02:35;;;;;;;2.80;1.30;;;;;;;21.49;53.68;99623.34;1721787;83;21027;-49
2022/07/08 16:05:01;;;;;;;4.67;1.50;;;;;;;21.43;53.51;99625.57;1711512;83;21031;-39
2022/07/08 16:07:29;;;;;;;6.28;1.35;;;;;;;21.36;53.55;99627.65;1719599;83;21120;-47
2022/07/08 16:09:54;;;;;;;5.75;1.10;;;;;;;21.36;53.81;99622.30;1719915;83;21038;-41
2022/07/08 16:12:20;;;;;;;4.22;0.80;;;;;;;21.26;53.78;99627.66;1721158;83;21005;-46
2022/07/08 16:14:46;;;;;;;3.02;1.35;;;;;;;21.20;53.11;99626.41;1722273;82;21535;-39
2022/07/08 16:17:14;;;;;;;3.42;1.40;;;;;;;21.16;53.41;99624.19;1702218;83;21031;-40
2022/07/08 16:19:40;;;;;;;1.90;1.20;;;;;;;21.11;53.66;99622.44;1701863;84;21007;-40
2022/07/08 16:22:06;;;;;;;4.63;1.63;;;;;;;21.09;53.65;99624.75;1703224;83;22127;-42
2022/07/08 16:24:41;;;;;;;2.12;1.35;;;;;;;21.13;53.63;99632.48;1722865;82;21004;-49
2022/07/08 16:27:07;;;;;;;4.40;1.52;;;;;;;21.05;53.61;99631.38;1710167;82;21060;-50
2022/07/08 16:29:33;;;;;;;7.80;1.60;;;;;;;21.05;53.14;99647.42;1732291;83;21020;-44
2022/07/08 16:31:59;;;;;;;5.20;1.82;;;;;;;21.05;52.86;99634.05;1732674;83;21000;-54
2022/07/08 16:34:24;;;;;;;8.00;2.60;;;;;;;21.07;52.81;99646.78;1733685;82;21391;-47
2022/07/08 16:36:50;;;;;;;3.30;1.85;;;;;;;20.98;53.00;99639.62;1749121;82;21035;-43
2022/07/08 16:39:21;;;;;;;3.58;1.60;;;;;;;20.97;53.15;99639.76;1732420;82;21004;-49
2022/07/08 16:41:47;;;;;;;2.67;1.32;;;;;;;20.95;53.03;99645.75;1734060;82;21389;-53
